Alden, New York
Current Conditions -  °F | °C
As of 4:54 PM on Wednesday 22 Oct 2014 (Local Time) from KBUF Reporting Station
Broken Clouds Broken Clouds  
Wind Chill: 42°   Ceiling: 1500
Heat Index: 46°   Visibility: 10mi
Dew Point: 39°   Wind: 7mph
Humidity: 76%   Direction: 350°N
Pressure: 30.21"   Gusts: NA
Location:  42.9°N, 78.49°W
Report Text: KBUF 222054Z 35006KT 10SM FEW011 BKN015 BKN050 08/04 A3021 RMK AO2 SLP234 T00780039 58002
Loading
Personal Weather Stations






























Interactive Weather Map
Tropical Storm Tracking
New forecast layout! Learn more

10-Day Weather Forecast

Advertisements
Track Severe Weather on mobile